sensor_id;sensor_type;location;lat;lon;timestamp;P1;durP1;ratioP1;P2;durP2;ratioP2
38972;SDS011;25333;50.762;4.470;2023-03-01T00:01:00;13.02;;;10.45;;
38972;SDS011;25333;50.762;4.470;2023-03-01T00:03:30;11.75;;;9.75;;
38972;SDS011;25333;50.762;4.470;2023-03-01T00:05:56;11.38;;;10.13;;
38972;SDS011;25333;50.762;4.470;2023-03-01T00:08:22;12.37;;;8.70;;
38972;SDS011;25333;50.762;4.470;2023-03-01T00:10:48;10.43;;;9.33;;
38972;SDS011;25333;50.762;4.470;2023-03-01T00:13:14;12.63;;;9.30;;
38972;SDS011;25333;50.762;4.470;2023-03-01T00:15:40;12.37;;;9.30;;
38972;SDS011;25333;50.762;4.470;2023-03-01T00:18:06;11.73;;;9.02;;
38972;SDS011;25333;50.762;4.470;2023-03-01T00:20:33;11.98;;;8.65;;
38972;SDS011;25333;50.762;4.470;2023-03-01T00:22:59;10.73;;;9.00;;
38972;SDS011;25333;50.762;4.470;2023-03-01T00:25:25;12.07;;;9.20;;
38972;SDS011;25333;50.762;4.470;2023-03-01T00:27:50;12.57;;;9.27;;
38972;SDS011;25333;50.762;4.470;2023-03-01T00:30:16;11.50;;;8.73;;
38972;SDS011;25333;50.762;4.470;2023-03-01T00:32:41;10.77;;;8.20;;
38972;SDS011;25333;50.762;4.470;2023-03-01T00:35:07;10.53;;;7.90;;
38972;SDS011;25333;50.762;4.470;2023-03-01T00:37:33;11.20;;;8.57;;
38972;SDS011;25333;50.762;4.470;2023-03-01T00:39:58;11.13;;;9.50;;
38972;SDS011;25333;50.762;4.470;2023-03-01T00:42:24;13.90;;;9.60;;
38972;SDS011;25333;50.762;4.470;2023-03-01T00:44:49;13.40;;;9.87;;
38972;SDS011;25333;50.762;4.470;2023-03-01T00:47:15;11.63;;;8.80;;
38972;SDS011;25333;50.762;4.470;2023-03-01T00:49:41;12.20;;;8.95;;
38972;SDS011;25333;50.762;4.470;2023-03-01T00:52:06;11.27;;;8.68;;
38972;SDS011;25333;50.762;4.470;2023-03-01T00:54:32;10.90;;;9.00;;
38972;SDS011;25333;50.762;4.470;2023-03-01T00:56:58;12.77;;;8.48;;
38972;SDS011;25333;50.762;4.470;2023-03-01T00:59:23;12.98;;;9.07;;
38972;SDS011;25333;50.762;4.470;2023-03-01T01:01:49;14.02;;;9.27;;
38972;SDS011;25333;50.762;4.470;2023-03-01T01:04:14;13.38;;;9.95;;
38972;SDS011;25333;50.762;4.470;2023-03-01T01:06:44;14.75;;;9.65;;
38972;SDS011;25333;50.762;4.470;2023-03-01T01:09:12;10.30;;;8.90;;
38972;SDS011;25333;50.762;4.470;2023-03-01T01:11:43;10.43;;;9.27;;
38972;SDS011;25333;50.762;4.470;2023-03-01T01:14:10;10.57;;;8.95;;
38972;SDS011;25333;50.762;4.470;2023-03-01T01:16:35;14.10;;;9.10;;
38972;SDS011;25333;50.762;4.470;2023-03-01T01:19:01;13.70;;;9.50;;
38972;SDS011;25333;50.762;4.470;2023-03-01T01:21:27;11.02;;;8.75;;
38972;SDS011;25333;50.762;4.470;2023-03-01T01:23:55;12.30;;;8.73;;
38972;SDS011;25333;50.762;4.470;2023-03-01T01:26:23;12.93;;;9.83;;
38972;SDS011;25333;50.762;4.470;2023-03-01T01:28:53;11.02;;;8.95;;
38972;SDS011;25333;50.762;4.470;2023-03-01T01:31:19;12.02;;;9.15;;
38972;SDS011;25333;50.762;4.470;2023-03-01T01:33:48;11.23;;;8.77;;
38972;SDS011;25333;50.762;4.470;2023-03-01T01:36:14;11.77;;;8.53;;
38972;SDS011;25333;50.762;4.470;2023-03-01T01:38:40;12.80;;;8.57;;
38972;SDS011;25333;50.762;4.470;2023-03-01T01:41:07;12.00;;;9.23;;
38972;SDS011;25333;50.762;4.470;2023-03-01T01:43:43;11.52;;;9.02;;
38972;SDS011;25333;50.762;4.470;2023-03-01T01:49:05;12.02;;;8.95;;
38972;SDS011;25333;50.762;4.470;2023-03-01T01:51:39;11.65;;;8.82;;
38972;SDS011;25333;50.762;4.470;2023-03-01T01:54:18;10.43;;;8.32;;
38972;SDS011;25333;50.762;4.470;2023-03-01T01:56:52;13.70;;;8.95;;
38972;SDS011;25333;50.762;4.470;2023-03-01T01:59:23;12.23;;;8.57;;
38972;SDS011;25333;50.762;4.470;2023-03-01T02:01:53;10.75;;;8.70;;
38972;SDS011;25333;50.762;4.470;2023-03-01T02:04:19;12.97;;;8.80;;
38972;SDS011;25333;50.762;4.470;2023-03-01T02:06:51;11.82;;;8.75;;
38972;SDS011;25333;50.762;4.470;2023-03-01T02:09:22;11.05;;;9.13;;
38972;SDS011;25333;50.762;4.470;2023-03-01T02:11:48;12.38;;;8.95;;
38972;SDS011;25333;50.762;4.470;2023-03-01T02:14:15;12.55;;;9.27;;
38972;SDS011;25333;50.762;4.470;2023-03-01T02:16:41;11.23;;;8.95;;
38972;SDS011;25333;50.762;4.470;2023-03-01T02:19:08;12.23;;;9.05;;
38972;SDS011;25333;50.762;4.470;2023-03-01T02:22:04;9.65;;;8.60;;
38972;SDS011;25333;50.762;4.470;2023-03-01T02:24:40;11.40;;;8.97;;
38972;SDS011;25333;50.762;4.470;2023-03-01T02:27:27;12.90;;;8.70;;
38972;SDS011;25333;50.762;4.470;2023-03-01T02:30:17;9.85;;;8.32;;
38972;SDS011;25333;50.762;4.470;2023-03-01T02:32:44;8.88;;;7.72;;
38972;SDS011;25333;50.762;4.470;2023-03-01T02:35:10;10.88;;;8.38;;
38972;SDS011;25333;50.762;4.470;2023-03-01T02:37:39;11.18;;;8.40;;
38972;SDS011;25333;50.762;4.470;2023-03-01T02:40:08;9.63;;;8.23;;
38972;SDS011;25333;50.762;4.470;2023-03-01T02:42:49;12.50;;;9.13;;
38972;SDS011;25333;50.762;4.470;2023-03-01T02:45:18;10.27;;;8.23;;
38972;SDS011;25333;50.762;4.470;2023-03-01T02:47:44;10.65;;;8.50;;
38972;SDS011;25333;50.762;4.470;2023-03-01T02:50:25;11.23;;;9.10;;
38972;SDS011;25333;50.762;4.470;2023-03-01T02:53:21;13.77;;;9.27;;
38972;SDS011;25333;50.762;4.470;2023-03-01T02:56:04;12.27;;;8.48;;
38972;SDS011;25333;50.762;4.470;2023-03-01T02:58:30;10.15;;;8.32;;
38972;SDS011;25333;50.762;4.470;2023-03-01T03:00:55;11.02;;;8.93;;
38972;SDS011;25333;50.762;4.470;2023-03-01T03:03:22;11.80;;;9.20;;
38972;SDS011;25333;50.762;4.470;2023-03-01T03:05:47;11.87;;;8.70;;
38972;SDS011;25333;50.762;4.470;2023-03-01T03:08:14;9.85;;;8.48;;
38972;SDS011;25333;50.762;4.470;2023-03-01T03:10:48;11.85;;;9.13;;
38972;SDS011;25333;50.762;4.470;2023-03-01T03:13:14;8.07;;;7.28;;
38972;SDS011;25333;50.762;4.470;2023-03-01T03:15:40;14.07;;;9.18;;
38972;SDS011;25333;50.762;4.470;2023-03-01T03:18:08;11.05;;;8.13;;
38972;SDS011;25333;50.762;4.470;2023-03-01T03:20:36;9.90;;;7.97;;
38972;SDS011;25333;50.762;4.470;2023-03-01T03:23:04;10.32;;;8.57;;
38972;SDS011;25333;50.762;4.470;2023-03-01T03:25:30;10.63;;;8.90;;
38972;SDS011;25333;50.762;4.470;2023-03-01T03:27:56;13.68;;;8.35;;
38972;SDS011;25333;50.762;4.470;2023-03-01T03:30:29;12.68;;;8.77;;
38972;SDS011;25333;50.762;4.470;2023-03-01T03:32:56;10.40;;;7.90;;
38972;SDS011;25333;50.762;4.470;2023-03-01T03:35:24;11.80;;;8.63;;
38972;SDS011;25333;50.762;4.470;2023-03-01T03:37:53;10.70;;;9.20;;
38972;SDS011;25333;50.762;4.470;2023-03-01T03:40:28;11.57;;;8.93;;
38972;SDS011;25333;50.762;4.470;2023-03-01T03:42:55;10.63;;;8.82;;
38972;SDS011;25333;50.762;4.470;2023-03-01T03:45:21;10.10;;;7.68;;
38972;SDS011;25333;50.762;4.470;2023-03-01T03:47:47;10.98;;;8.75;;
38972;SDS011;25333;50.762;4.470;2023-03-01T03:50:13;11.02;;;8.98;;
38972;SDS011;25333;50.762;4.470;2023-03-01T03:52:40;11.18;;;8.73;;
38972;SDS011;25333;50.762;4.470;2023-03-01T03:55:06;13.95;;;10.10;;
38972;SDS011;25333;50.762;4.470;2023-03-01T03:57:34;10.37;;;8.87;;
38972;SDS011;25333;50.762;4.470;2023-03-01T04:00:00;10.13;;;9.05;;
38972;SDS011;25333;50.762;4.470;2023-03-01T04:02:29;9.60;;;8.32;;
38972;SDS011;25333;50.762;4.470;2023-03-01T04:04:55;13.02;;;9.35;;
38972;SDS011;25333;50.762;4.470;2023-03-01T04:07:21;11.13;;;8.93;;
38972;SDS011;25333;50.762;4.470;2023-03-01T04:09:46;10.57;;;8.73;;
38972;SDS011;25333;50.762;4.470;2023-03-01T04:12:12;11.50;;;10.00;;
38972;SDS011;25333;50.762;4.470;2023-03-01T04:14:37;9.87;;;8.67;;
38972;SDS011;25333;50.762;4.470;2023-03-01T04:17:03;12.23;;;8.43;;
38972;SDS011;25333;50.762;4.470;2023-03-01T04:19:30;12.35;;;9.57;;
38972;SDS011;25333;50.762;4.470;2023-03-01T04:22:01;10.73;;;8.65;;
38972;SDS011;25333;50.762;4.470;2023-03-01T04:24:32;10.40;;;8.80;;
38972;SDS011;25333;50.762;4.470;2023-03-01T04:26:58;12.55;;;9.27;;
38972;SDS011;25333;50.762;4.470;2023-03-01T04:29:24;14.05;;;9.23;;
38972;SDS011;25333;50.762;4.470;2023-03-01T04:31:49;11.48;;;9.43;;
38972;SDS011;25333;50.762;4.470;2023-03-01T04:34:15;12.02;;;8.90;;
38972;SDS011;25333;50.762;4.470;2023-03-01T04:36:40;13.80;;;8.90;;
38972;SDS011;25333;50.762;4.470;2023-03-01T04:39:06;12.77;;;9.87;;
38972;SDS011;25333;50.762;4.470;2023-03-01T04:41:37;10.63;;;8.45;;
38972;SDS011;25333;50.762;4.470;2023-03-01T04:44:04;12.00;;;9.20;;
38972;SDS011;25333;50.762;4.470;2023-03-01T04:46:30;12.60;;;8.93;;
38972;SDS011;25333;50.762;4.470;2023-03-01T04:48:56;10.93;;;8.60;;
38972;SDS011;25333;50.762;4.470;2023-03-01T04:51:21;14.23;;;8.90;;
38972;SDS011;25333;50.762;4.470;2023-03-01T04:53:47;11.53;;;8.80;;
38972;SDS011;25333;50.762;4.470;2023-03-01T04:56:13;10.52;;;8.82;;
38972;SDS011;25333;50.762;4.470;2023-03-01T04:58:39;12.45;;;9.38;;
38972;SDS011;25333;50.762;4.470;2023-03-01T05:01:10;11.93;;;8.37;;
38972;SDS011;25333;50.762;4.470;2023-03-01T05:03:48;11.97;;;9.17;;
38972;SDS011;25333;50.762;4.470;2023-03-01T05:06:15;11.65;;;8.50;;
38972;SDS011;25333;50.762;4.470;2023-03-01T05:08:42;10.48;;;8.35;;
38972;SDS011;25333;50.762;4.470;2023-03-01T05:11:08;13.20;;;8.95;;
38972;SDS011;25333;50.762;4.470;2023-03-01T05:13:35;10.23;;;8.93;;
38972;SDS011;25333;50.762;4.470;2023-03-01T05:16:02;12.47;;;8.80;;
38972;SDS011;25333;50.762;4.470;2023-03-01T05:18:30;11.07;;;8.88;;
38972;SDS011;25333;50.762;4.470;2023-03-01T05:21:05;10.80;;;8.80;;
38972;SDS011;25333;50.762;4.470;2023-03-01T05:23:32;12.48;;;10.30;;
38972;SDS011;25333;50.762;4.470;2023-03-01T05:25:59;10.43;;;8.65;;
38972;SDS011;25333;50.762;4.470;2023-03-01T05:28:25;10.80;;;8.45;;
38972;SDS011;25333;50.762;4.470;2023-03-01T05:30:52;10.05;;;8.65;;
38972;SDS011;25333;50.762;4.470;2023-03-01T05:33:19;11.48;;;8.68;;
38972;SDS011;25333;50.762;4.470;2023-03-01T05:35:46;13.98;;;9.15;;
38972;SDS011;25333;50.762;4.470;2023-03-01T05:38:13;11.07;;;8.90;;
38972;SDS011;25333;50.762;4.470;2023-03-01T05:40:41;12.80;;;9.93;;
38972;SDS011;25333;50.762;4.470;2023-03-01T05:43:08;10.18;;;8.48;;
38972;SDS011;25333;50.762;4.470;2023-03-01T05:45:35;12.32;;;8.98;;
38972;SDS011;25333;50.762;4.470;2023-03-01T05:48:02;12.32;;;9.15;;
38972;SDS011;25333;50.762;4.470;2023-03-01T05:50:31;10.80;;;9.23;;
38972;SDS011;25333;50.762;4.470;2023-03-01T05:53:00;13.90;;;9.25;;
38972;SDS011;25333;50.762;4.470;2023-03-01T05:55:28;11.43;;;9.13;;
38972;SDS011;25333;50.762;4.470;2023-03-01T05:57:57;11.45;;;8.48;;
38972;SDS011;25333;50.762;4.470;2023-03-01T06:00:23;11.50;;;9.98;;
38972;SDS011;25333;50.762;4.470;2023-03-01T06:02:49;13.93;;;9.13;;
38972;SDS011;25333;50.762;4.470;2023-03-01T06:05:17;11.02;;;9.18;;
38972;SDS011;25333;50.762;4.470;2023-03-01T06:07:42;12.63;;;9.30;;
38972;SDS011;25333;50.762;4.470;2023-03-01T06:10:09;11.70;;;10.02;;
38972;SDS011;25333;50.762;4.470;2023-03-01T06:12:36;11.98;;;8.50;;
38972;SDS011;25333;50.762;4.470;2023-03-01T06:15:04;11.63;;;8.60;;
38972;SDS011;25333;50.762;4.470;2023-03-01T06:17:40;12.60;;;10.27;;
38972;SDS011;25333;50.762;4.470;2023-03-01T06:20:08;12.98;;;8.75;;
38972;SDS011;25333;50.762;4.470;2023-03-01T06:22:36;14.05;;;9.98;;
38972;SDS011;25333;50.762;4.470;2023-03-01T06:25:04;13.70;;;9.90;;
38972;SDS011;25333;50.762;4.470;2023-03-01T06:27:30;12.00;;;9.82;;
38972;SDS011;25333;50.762;4.470;2023-03-01T06:29:56;12.65;;;9.88;;
38972;SDS011;25333;50.762;4.470;2023-03-01T06:32:22;12.60;;;8.80;;
38972;SDS011;25333;50.762;4.470;2023-03-01T06:34:47;15.70;;;10.10;;
38972;SDS011;25333;50.762;4.470;2023-03-01T06:37:13;16.30;;;9.97;;
38972;SDS011;25333;50.762;4.470;2023-03-01T06:39:39;14.40;;;10.90;;
38972;SDS011;25333;50.762;4.470;2023-03-01T06:42:08;14.15;;;10.05;;
38972;SDS011;25333;50.762;4.470;2023-03-01T06:44:35;14.98;;;11.27;;
38972;SDS011;25333;50.762;4.470;2023-03-01T06:47:01;13.43;;;9.80;;
38972;SDS011;25333;50.762;4.470;2023-03-01T06:49:29;13.98;;;10.32;;
38972;SDS011;25333;50.762;4.470;2023-03-01T06:52:02;13.80;;;10.35;;
38972;SDS011;25333;50.762;4.470;2023-03-01T06:54:28;15.55;;;10.10;;
38972;SDS011;25333;50.762;4.470;2023-03-01T06:56:54;15.05;;;11.07;;
38972;SDS011;25333;50.762;4.470;2023-03-01T06:59:20;15.70;;;10.60;;
38972;SDS011;25333;50.762;4.470;2023-03-01T07:01:45;14.10;;;11.05;;
38972;SDS011;25333;50.762;4.470;2023-03-01T07:04:12;14.83;;;10.67;;
38972;SDS011;25333;50.762;4.470;2023-03-01T07:06:38;12.93;;;10.05;;
38972;SDS011;25333;50.762;4.470;2023-03-01T07:09:04;12.23;;;10.35;;
38972;SDS011;25333;50.762;4.470;2023-03-01T07:11:29;13.75;;;10.65;;
38972;SDS011;25333;50.762;4.470;2023-03-01T07:13:55;14.38;;;10.07;;
38972;SDS011;25333;50.762;4.470;2023-03-01T07:16:21;14.98;;;11.40;;
38972;SDS011;25333;50.762;4.470;2023-03-01T07:18:47;17.33;;;10.43;;
38972;SDS011;25333;50.762;4.470;2023-03-01T07:21:13;13.35;;;10.02;;
38972;SDS011;25333;50.762;4.470;2023-03-01T07:23:40;13.30;;;10.55;;
38972;SDS011;25333;50.762;4.470;2023-03-01T07:26:06;15.63;;;11.50;;
38972;SDS011;25333;50.762;4.470;2023-03-01T07:28:31;15.40;;;11.02;;
38972;SDS011;25333;50.762;4.470;2023-03-01T07:31:03;13.45;;;10.90;;
38972;SDS011;25333;50.762;4.470;2023-03-01T07:33:30;14.70;;;11.00;;
38972;SDS011;25333;50.762;4.470;2023-03-01T07:35:57;15.00;;;11.52;;
38972;SDS011;25333;50.762;4.470;2023-03-01T07:38:24;13.23;;;10.32;;
38972;SDS011;25333;50.762;4.470;2023-03-01T07:40:49;13.48;;;10.52;;
38972;SDS011;25333;50.762;4.470;2023-03-01T07:43:15;14.87;;;11.17;;
38972;SDS011;25333;50.762;4.470;2023-03-01T07:45:41;15.03;;;12.03;;
38972;SDS011;25333;50.762;4.470;2023-03-01T07:48:06;15.10;;;10.47;;
38972;SDS011;25333;50.762;4.470;2023-03-01T07:50:32;13.73;;;10.23;;
38972;SDS011;25333;50.762;4.470;2023-03-01T07:52:57;13.82;;;9.43;;
38972;SDS011;25333;50.762;4.470;2023-03-01T07:55:23;15.63;;;10.98;;
38972;SDS011;25333;50.762;4.470;2023-03-01T07:57:49;13.63;;;11.40;;
38972;SDS011;25333;50.762;4.470;2023-03-01T08:00:14;13.93;;;11.65;;
38972;SDS011;25333;50.762;4.470;2023-03-01T08:02:40;14.13;;;11.48;;
38972;SDS011;25333;50.762;4.470;2023-03-01T08:05:07;13.27;;;11.00;;
38972;SDS011;25333;50.762;4.470;2023-03-01T08:07:34;13.57;;;9.48;;
38972;SDS011;25333;50.762;4.470;2023-03-01T08:09:59;12.63;;;10.40;;
38972;SDS011;25333;50.762;4.470;2023-03-01T08:12:25;12.97;;;10.50;;
38972;SDS011;25333;50.762;4.470;2023-03-01T08:14:53;14.88;;;10.30;;
38972;SDS011;25333;50.762;4.470;2023-03-01T08:17:18;15.50;;;10.07;;
38972;SDS011;25333;50.762;4.470;2023-03-01T08:19:44;11.37;;;8.87;;
38972;SDS011;25333;50.762;4.470;2023-03-01T08:22:10;14.38;;;10.73;;
38972;SDS011;25333;50.762;4.470;2023-03-01T08:24:36;15.20;;;10.80;;
38972;SDS011;25333;50.762;4.470;2023-03-01T08:27:01;15.52;;;10.15;;
38972;SDS011;25333;50.762;4.470;2023-03-01T08:29:28;12.77;;;9.93;;
38972;SDS011;25333;50.762;4.470;2023-03-01T08:31:55;15.98;;;10.00;;
38972;SDS011;25333;50.762;4.470;2023-03-01T08:34:21;13.13;;;9.70;;
38972;SDS011;25333;50.762;4.470;2023-03-01T08:36:47;14.60;;;9.63;;
38972;SDS011;25333;50.762;4.470;2023-03-01T08:39:14;12.52;;;9.93;;
38972;SDS011;25333;50.762;4.470;2023-03-01T08:41:41;14.60;;;10.68;;
38972;SDS011;25333;50.762;4.470;2023-03-01T08:44:07;14.95;;;11.38;;
38972;SDS011;25333;50.762;4.470;2023-03-01T08:46:36;12.27;;;10.20;;
38972;SDS011;25333;50.762;4.470;2023-03-01T08:49:04;15.07;;;10.97;;
38972;SDS011;25333;50.762;4.470;2023-03-01T08:51:31;13.18;;;9.93;;
38972;SDS011;25333;50.762;4.470;2023-03-01T08:54:01;12.98;;;9.88;;
38972;SDS011;25333;50.762;4.470;2023-03-01T08:56:30;14.00;;;10.52;;
38972;SDS011;25333;50.762;4.470;2023-03-01T08:58:56;13.75;;;9.70;;
38972;SDS011;25333;50.762;4.470;2023-03-01T09:01:21;11.98;;;9.93;;
38972;SDS011;25333;50.762;4.470;2023-03-01T09:03:47;10.55;;;9.38;;
38972;SDS011;25333;50.762;4.470;2023-03-01T09:06:13;12.00;;;9.47;;
38972;SDS011;25333;50.762;4.470;2023-03-01T09:08:40;12.70;;;9.48;;
38972;SDS011;25333;50.762;4.470;2023-03-01T09:11:09;12.65;;;10.25;;
38972;SDS011;25333;50.762;4.470;2023-03-01T09:13:36;12.13;;;10.07;;
38972;SDS011;25333;50.762;4.470;2023-03-01T09:16:02;13.40;;;10.55;;
38972;SDS011;25333;50.762;4.470;2023-03-01T09:18:30;13.30;;;10.47;;
38972;SDS011;25333;50.762;4.470;2023-03-01T09:23:35;13.95;;;10.35;;
38972;SDS011;25333;50.762;4.470;2023-03-01T09:26:06;13.73;;;10.32;;
38972;SDS011;25333;50.762;4.470;2023-03-01T09:28:41;15.05;;;11.13;;
38972;SDS011;25333;50.762;4.470;2023-03-01T09:31:07;13.90;;;10.38;;
38972;SDS011;25333;50.762;4.470;2023-03-01T09:33:33;12.48;;;10.10;;
38972;SDS011;25333;50.762;4.470;2023-03-01T09:36:04;12.13;;;8.95;;
38972;SDS011;25333;50.762;4.470;2023-03-01T09:38:32;11.75;;;9.65;;
38972;SDS011;25333;50.762;4.470;2023-03-01T09:40:58;15.25;;;10.57;;
38972;SDS011;25333;50.762;4.470;2023-03-01T09:43:26;13.85;;;10.02;;
38972;SDS011;25333;50.762;4.470;2023-03-01T09:46:02;12.50;;;9.60;;
38972;SDS011;25333;50.762;4.470;2023-03-01T09:48:33;12.97;;;10.00;;
38972;SDS011;25333;50.762;4.470;2023-03-01T09:51:08;13.65;;;10.15;;
38972;SDS011;25333;50.762;4.470;2023-03-01T09:53:40;14.15;;;10.43;;
38972;SDS011;25333;50.762;4.470;2023-03-01T09:56:12;12.27;;;9.60;;
38972;SDS011;25333;50.762;4.470;2023-03-01T10:02:32;13.45;;;9.93;;
38972;SDS011;25333;50.762;4.470;2023-03-01T10:07:27;13.55;;;9.88;;
38972;SDS011;25333;50.762;4.470;2023-03-01T10:10:07;14.98;;;10.00;;
38972;SDS011;25333;50.762;4.470;2023-03-01T10:12:48;13.13;;;10.65;;
38972;SDS011;25333;50.762;4.470;2023-03-01T10:15:19;13.23;;;10.60;;
38972;SDS011;25333;50.762;4.470;2023-03-01T10:18:10;13.57;;;10.53;;
38972;SDS011;25333;50.762;4.470;2023-03-01T10:23:33;13.35;;;9.98;;
38972;SDS011;25333;50.762;4.470;2023-03-01T10:26:09;13.32;;;9.85;;
38972;SDS011;25333;50.762;4.470;2023-03-01T10:31:37;15.52;;;10.73;;
38972;SDS011;25333;50.762;4.470;2023-03-01T10:36:56;12.95;;;10.30;;
38972;SDS011;25333;50.762;4.470;2023-03-01T10:39:26;16.42;;;10.35;;
38972;SDS011;25333;50.762;4.470;2023-03-01T10:41:56;14.63;;;11.30;;
38972;SDS011;25333;50.762;4.470;2023-03-01T10:44:35;12.98;;;10.20;;
38972;SDS011;25333;50.762;4.470;2023-03-01T10:47:01;21.25;;;11.40;;
38972;SDS011;25333;50.762;4.470;2023-03-01T10:49:27;15.97;;;10.27;;
38972;SDS011;25333;50.762;4.470;2023-03-01T10:51:53;12.97;;;9.60;;
38972;SDS011;25333;50.762;4.470;2023-03-01T10:54:20;11.50;;;9.68;;
38972;SDS011;25333;50.762;4.470;2023-03-01T10:56:57;13.02;;;10.02;;
38972;SDS011;25333;50.762;4.470;2023-03-01T10:59:32;11.20;;;9.25;;
38972;SDS011;25333;50.762;4.470;2023-03-01T11:02:15;13.73;;;9.88;;
38972;SDS011;25333;50.762;4.470;2023-03-01T11:04:55;15.30;;;9.68;;
38972;SDS011;25333;50.762;4.470;2023-03-01T11:07:48;12.88;;;10.18;;
38972;SDS011;25333;50.762;4.470;2023-03-01T11:10:48;11.80;;;8.55;;
38972;SDS011;25333;50.762;4.470;2023-03-01T11:13:14;14.13;;;9.70;;
38972;SDS011;25333;50.762;4.470;2023-03-01T11:15:42;11.45;;;9.38;;
38972;SDS011;25333;50.762;4.470;2023-03-01T11:18:22;10.85;;;9.05;;
38972;SDS011;25333;50.762;4.470;2023-03-01T11:20:48;10.68;;;8.40;;
38972;SDS011;25333;50.762;4.470;2023-03-01T11:23:18;12.75;;;9.73;;
38972;SDS011;25333;50.762;4.470;2023-03-01T11:26:05;12.93;;;9.10;;
38972;SDS011;25333;50.762;4.470;2023-03-01T11:28:33;10.95;;;9.52;;
38972;SDS011;25333;50.762;4.470;2023-03-01T11:31:03;12.18;;;9.48;;
38972;SDS011;25333;50.762;4.470;2023-03-01T11:38:45;13.30;;;9.85;;
38972;SDS011;25333;50.762;4.470;2023-03-01T11:41:16;12.20;;;8.93;;
38972;SDS011;25333;50.762;4.470;2023-03-01T11:44:02;12.45;;;9.52;;
38972;SDS011;25333;50.762;4.470;2023-03-01T11:46:40;13.98;;;9.77;;
38972;SDS011;25333;50.762;4.470;2023-03-01T11:54:58;11.63;;;8.77;;
38972;SDS011;25333;50.762;4.470;2023-03-01T12:00:14;13.43;;;10.07;;
38972;SDS011;25333;50.762;4.470;2023-03-01T12:05:25;15.35;;;8.68;;
38972;SDS011;25333;50.762;4.470;2023-03-01T12:08:12;11.90;;;9.25;;
38972;SDS011;25333;50.762;4.470;2023-03-01T12:13:35;11.93;;;8.30;;
38972;SDS011;25333;50.762;4.470;2023-03-01T12:22:04;14.32;;;9.25;;
38972;SDS011;25333;50.762;4.470;2023-03-01T12:32:54;13.10;;;9.60;;
38972;SDS011;25333;50.762;4.470;2023-03-01T12:35:51;10.18;;;8.93;;
38972;SDS011;25333;50.762;4.470;2023-03-01T12:41:19;12.45;;;8.77;;
38972;SDS011;25333;50.762;4.470;2023-03-01T12:44:08;9.48;;;8.40;;
38972;SDS011;25333;50.762;4.470;2023-03-01T12:49:47;10.73;;;8.00;;
38972;SDS011;25333;50.762;4.470;2023-03-01T12:55:02;10.13;;;9.07;;
38972;SDS011;25333;50.762;4.470;2023-03-01T12:57:42;10.55;;;8.38;;
38972;SDS011;25333;50.762;4.470;2023-03-01T13:00:30;10.73;;;8.38;;
38972;SDS011;25333;50.762;4.470;2023-03-01T13:07:11;11.45;;;7.93;;
38972;SDS011;25333;50.762;4.470;2023-03-01T13:09:31;12.77;;;8.85;;
38972;SDS011;25333;50.762;4.470;2023-03-01T13:12:00;12.90;;;9.55;;
38972;SDS011;25333;50.762;4.470;2023-03-01T13:16:54;12.00;;;9.00;;
38972;SDS011;25333;50.762;4.470;2023-03-01T13:19:24;11.00;;;8.07;;
38972;SDS011;25333;50.762;4.470;2023-03-01T13:21:52;10.63;;;8.23;;
38972;SDS011;25333;50.762;4.470;2023-03-01T13:35:02;10.17;;;8.57;;
38972;SDS011;25333;50.762;4.470;2023-03-01T13:37:48;11.15;;;8.35;;
38972;SDS011;25333;50.762;4.470;2023-03-01T13:42:46;10.48;;;7.57;;
38972;SDS011;25333;50.762;4.470;2023-03-01T13:45:18;11.50;;;7.93;;
38972;SDS011;25333;50.762;4.470;2023-03-01T13:47:53;11.15;;;8.85;;
38972;SDS011;25333;50.762;4.470;2023-03-01T13:50:24;12.60;;;8.45;;
38972;SDS011;25333;50.762;4.470;2023-03-01T13:52:54;12.55;;;8.57;;
38972;SDS011;25333;50.762;4.470;2023-03-01T13:55:30;12.57;;;8.07;;
38972;SDS011;25333;50.762;4.470;2023-03-01T13:58:24;10.60;;;8.10;;
38972;SDS011;25333;50.762;4.470;2023-03-01T14:01:02;12.50;;;8.77;;
38972;SDS011;25333;50.762;4.470;2023-03-01T14:03:30;12.60;;;8.45;;
38972;SDS011;25333;50.762;4.470;2023-03-01T14:08:40;10.38;;;7.85;;
38972;SDS011;25333;50.762;4.470;2023-03-01T14:14:13;10.15;;;7.60;;
38972;SDS011;25333;50.762;4.470;2023-03-01T14:16:52;11.45;;;7.43;;
38972;SDS011;25333;50.762;4.470;2023-03-01T14:19:30;11.85;;;7.80;;
38972;SDS011;25333;50.762;4.470;2023-03-01T14:22:11;10.60;;;7.80;;
38972;SDS011;25333;50.762;4.470;2023-03-01T14:24:38;9.50;;;7.63;;
38972;SDS011;25333;50.762;4.470;2023-03-01T14:27:12;10.68;;;7.07;;
38972;SDS011;25333;50.762;4.470;2023-03-01T14:29:39;9.85;;;8.18;;
38972;SDS011;25333;50.762;4.470;2023-03-01T14:32:18;11.10;;;7.80;;
38972;SDS011;25333;50.762;4.470;2023-03-01T14:34:46;10.57;;;8.13;;
38972;SDS011;25333;50.762;4.470;2023-03-01T14:39:45;12.48;;;8.63;;
38972;SDS011;25333;50.762;4.470;2023-03-01T14:42:12;10.48;;;8.00;;
38972;SDS011;25333;50.762;4.470;2023-03-01T14:44:40;12.18;;;8.73;;
38972;SDS011;25333;50.762;4.470;2023-03-01T14:47:15;9.48;;;7.70;;
38972;SDS011;25333;50.762;4.470;2023-03-01T14:49:58;13.40;;;8.80;;
38972;SDS011;25333;50.762;4.470;2023-03-01T14:52:55;9.93;;;7.65;;
38972;SDS011;25333;50.762;4.470;2023-03-01T14:57:53;10.03;;;8.20;;
38972;SDS011;25333;50.762;4.470;2023-03-01T15:00:23;13.67;;;8.17;;
38972;SDS011;25333;50.762;4.470;2023-03-01T15:02:52;11.63;;;8.93;;
38972;SDS011;25333;50.762;4.470;2023-03-01T15:05:23;10.38;;;7.55;;
38972;SDS011;25333;50.762;4.470;2023-03-01T15:07:55;12.40;;;8.45;;
38972;SDS011;25333;50.762;4.470;2023-03-01T15:10:24;11.00;;;8.20;;
38972;SDS011;25333;50.762;4.470;2023-03-01T15:12:52;11.30;;;7.78;;
38972;SDS011;25333;50.762;4.470;2023-03-01T15:15:34;10.60;;;8.10;;
38972;SDS011;25333;50.762;4.470;2023-03-01T15:18:06;12.27;;;8.15;;
38972;SDS011;25333;50.762;4.470;2023-03-01T15:20:44;11.13;;;7.57;;
38972;SDS011;25333;50.762;4.470;2023-03-01T15:23:28;12.13;;;7.55;;
38972;SDS011;25333;50.762;4.470;2023-03-01T15:25:55;10.83;;;7.80;;
38972;SDS011;25333;50.762;4.470;2023-03-01T15:28:26;11.18;;;7.30;;
38972;SDS011;25333;50.762;4.470;2023-03-01T15:30:55;10.30;;;7.47;;
38972;SDS011;25333;50.762;4.470;2023-03-01T15:33:42;9.43;;;7.85;;
38972;SDS011;25333;50.762;4.470;2023-03-01T15:38:59;13.68;;;9.25;;
38972;SDS011;25333;50.762;4.470;2023-03-01T15:41:27;17.65;;;9.25;;
38972;SDS011;25333;50.762;4.470;2023-03-01T15:44:14;10.13;;;7.18;;
38972;SDS011;25333;50.762;4.470;2023-03-01T15:46:50;9.63;;;7.20;;
38972;SDS011;25333;50.762;4.470;2023-03-01T15:49:38;11.97;;;7.43;;
38972;SDS011;25333;50.762;4.470;2023-03-01T15:52:02;8.60;;;7.13;;
38972;SDS011;25333;50.762;4.470;2023-03-01T15:54:28;10.25;;;7.20;;
38972;SDS011;25333;50.762;4.470;2023-03-01T15:56:54;9.90;;;7.15;;
38972;SDS011;25333;50.762;4.470;2023-03-01T15:59:20;11.13;;;6.90;;
38972;SDS011;25333;50.762;4.470;2023-03-01T16:01:47;11.10;;;7.25;;
38972;SDS011;25333;50.762;4.470;2023-03-01T16:04:14;9.43;;;6.60;;
38972;SDS011;25333;50.762;4.470;2023-03-01T16:06:49;10.10;;;6.35;;
38972;SDS011;25333;50.762;4.470;2023-03-01T16:09:18;10.70;;;7.63;;
38972;SDS011;25333;50.762;4.470;2023-03-01T16:11:46;10.50;;;7.60;;
38972;SDS011;25333;50.762;4.470;2023-03-01T16:14:13;10.23;;;7.10;;
38972;SDS011;25333;50.762;4.470;2023-03-01T16:16:39;10.73;;;7.43;;
38972;SDS011;25333;50.762;4.470;2023-03-01T16:19:05;8.50;;;6.93;;
38972;SDS011;25333;50.762;4.470;2023-03-01T16:21:30;10.13;;;7.00;;
38972;SDS011;25333;50.762;4.470;2023-03-01T16:23:56;11.13;;;7.03;;